Time;durP1;ratioP1;P1;durP2;ratioP2;P2;SDS_P1;SDS_P2;PMS_P1;PMS_P2;Temp;Humidity;BMP_temperature;BMP_pressure;BME280_temperature;BME280_humidity;BME280_pressure;Samples;Min_cycle;Max_cycle;Signal;HPM_P1;HPM_P2
2024/02/01 00:01:16;;;;;;;8.52;4.20;;;;;;;;;;4944974;29;20055;-60
2024/02/01 00:03:43;;;;;;;7.57;3.92;;;;;;;;;;4947549;29;20035;-60
2024/02/01 00:06:09;;;;;;;8.23;4.47;;;;;;;;;;4950897;29;20043;-60
2024/02/01 00:08:35;;;;;;;9.50;4.38;;;;;;;;;;4951289;28;20059;-60
2024/02/01 00:11:02;;;;;;;8.48;4.80;;;;;;;;;;4951098;28;20063;-60
2024/02/01 00:13:28;;;;;;;12.23;4.57;;;;;;;;;;4951805;28;20070;-60
2024/02/01 00:15:54;;;;;;;8.38;4.20;;;;;;;;;;4951384;28;20047;-60
2024/02/01 00:18:21;;;;;;;6.15;4.07;;;;;;;;;;4952071;29;20046;-60
2024/02/01 00:20:47;;;;;;;11.00;4.47;;;;;;;;;;4949071;28;20050;-60
2024/02/01 00:23:13;;;;;;;9.15;4.82;;;;;;;;;;4949982;28;20054;-60
2024/02/01 00:25:39;;;;;;;9.85;4.40;;;;;;;;;;4948287;29;20035;-60
2024/02/01 00:28:06;;;;;;;7.30;4.20;;;;;;;;;;4949971;28;20040;-60
2024/02/01 00:30:33;;;;;;;7.55;4.00;;;;;;;;;;4950394;28;20058;-60
2024/02/01 00:32:59;;;;;;;8.32;4.43;;;;;;;;;;4949335;29;20042;-60
2024/02/01 00:35:26;;;;;;;8.77;4.50;;;;;;;;;;4950936;29;20050;-61
2024/02/01 00:37:52;;;;;;;11.50;4.32;;;;;;;;;;4946743;28;20042;-60
2024/02/01 00:40:18;;;;;;;9.52;4.30;;;;;;;;;;4951666;28;20042;-60
2024/02/01 00:42:44;;;;;;;7.57;4.28;;;;;;;;;;4952640;28;20439;-60
2024/02/01 00:45:10;;;;;;;9.90;4.95;;;;;;;;;;4953797;29;20410;-60
2024/02/01 00:47:36;;;;;;;8.13;4.05;;;;;;;;;;4954987;29;20042;-60
2024/02/01 00:50:03;;;;;;;9.98;4.03;;;;;;;;;;4953792;29;20110;-60
2024/02/01 00:52:29;;;;;;;8.30;4.22;;;;;;;;;;4951597;28;20046;-60
2024/02/01 00:54:55;;;;;;;9.88;4.65;;;;;;;;;;4951671;28;20051;-60
2024/02/01 00:57:21;;;;;;;9.40;4.15;;;;;;;;;;4953477;28;20054;-60
2024/02/01 00:59:47;;;;;;;7.88;3.83;;;;;;;;;;4955288;28;20046;-61
2024/02/01 01:02:14;;;;;;;8.32;3.97;;;;;;;;;;4953285;29;20035;-60
2024/02/01 01:04:40;;;;;;;8.18;4.10;;;;;;;;;;4954904;28;20050;-60
2024/02/01 01:07:06;;;;;;;9.82;4.40;;;;;;;;;;4953014;28;20054;-60
2024/02/01 01:09:32;;;;;;;11.38;4.75;;;;;;;;;;4954924;28;20101;-60
2024/02/01 01:11:58;;;;;;;9.43;4.22;;;;;;;;;;4954705;28;20043;-60
2024/02/01 01:14:25;;;;;;;6.85;3.95;;;;;;;;;;4953150;28;20031;-60
2024/02/01 01:16:51;;;;;;;11.35;4.18;;;;;;;;;;4951421;28;20039;-60
2024/02/01 01:19:17;;;;;;;9.15;4.22;;;;;;;;;;4955144;28;20039;-60
2024/02/01 01:21:43;;;;;;;8.85;3.97;;;;;;;;;;4953409;29;20042;-60
2024/02/01 01:24:09;;;;;;;9.60;4.10;;;;;;;;;;4953584;28;20055;-60
2024/02/01 01:26:35;;;;;;;8.35;3.85;;;;;;;;;;4950292;28;20042;-60
2024/02/01 01:29:01;;;;;;;9.45;4.22;;;;;;;;;;4950667;28;20043;-59
2024/02/01 01:31:27;;;;;;;10.50;4.10;;;;;;;;;;4949981;29;20043;-59
2024/02/01 01:33:53;;;;;;;10.80;4.53;;;;;;;;;;4952880;28;20370;-58
2024/02/01 01:36:19;;;;;;;6.50;4.00;;;;;;;;;;4949920;28;20047;-61
2024/02/01 01:38:45;;;;;;;9.10;4.13;;;;;;;;;;4953719;28;20070;-60
2024/02/01 01:41:12;;;;;;;10.48;3.90;;;;;;;;;;4953790;29;20031;-60
2024/02/01 01:43:38;;;;;;;8.18;4.32;;;;;;;;;;4954315;28;20051;-60
2024/02/01 01:46:04;;;;;;;9.40;3.92;;;;;;;;;;4952629;29;20046;-60
2024/02/01 01:48:33;;;;;;;14.40;4.32;;;;;;;;;;4950475;29;20031;-60
2024/02/01 01:50:59;;;;;;;9.25;4.30;;;;;;;;;;4950624;29;20047;-60
2024/02/01 01:53:27;;;;;;;9.30;3.88;;;;;;;;;;4952661;28;20411;-60
2024/02/01 01:55:56;;;;;;;10.60;3.92;;;;;;;;;;4949231;28;20036;-60
2024/02/01 01:58:25;;;;;;;7.63;3.33;;;;;;;;;;4951327;28;20065;-59
2024/02/01 02:00:51;;;;;;;6.07;3.35;;;;;;;;;;4951472;29;20505;-60
2024/02/01 02:03:18;;;;;;;8.90;3.83;;;;;;;;;;4954017;29;20042;-60
2024/02/01 02:05:44;;;;;;;7.28;3.92;;;;;;;;;;4952976;29;20043;-59
2024/02/01 02:08:10;;;;;;;7.28;3.60;;;;;;;;;;4952250;28;20054;-60
2024/02/01 02:10:38;;;;;;;9.23;3.90;;;;;;;;;;4952564;29;20380;-60
2024/02/01 02:13:04;;;;;;;6.45;3.03;;;;;;;;;;4953516;28;20050;-60
2024/02/01 02:15:32;;;;;;;8.02;3.40;;;;;;;;;;4949582;28;20052;-60
2024/02/01 02:17:59;;;;;;;5.63;3.10;;;;;;;;;;4948980;28;20046;-60
2024/02/01 02:20:26;;;;;;;8.10;3.42;;;;;;;;;;4954021;28;20039;-60
2024/02/01 02:22:54;;;;;;;5.97;2.95;;;;;;;;;;4950976;29;20039;-60
2024/02/01 02:25:21;;;;;;;5.45;3.70;;;;;;;;;;4950096;28;20058;-60
2024/02/01 02:27:47;;;;;;;8.13;3.95;;;;;;;;;;4952717;29;20047;-60
2024/02/01 02:30:13;;;;;;;9.27;4.10;;;;;;;;;;4952615;28;20054;-60
2024/02/01 02:32:43;;;;;;;7.40;4.13;;;;;;;;;;4953445;29;20023;-60
2024/02/01 02:35:12;;;;;;;;;;;;;;;;;;4949084;29;20042;-60
2024/02/01 02:37:50;;;;;;;5.13;3.50;;;;;;;;;;4953121;29;19922;-60
2024/02/01 02:40:18;;;;;;;4.95;3.10;;;;;;;;;;4948337;29;20747;-59
2024/02/01 02:42:45;;;;;;;6.00;3.30;;;;;;;;;;4952592;29;20042;-60
2024/02/01 02:45:11;;;;;;;9.35;3.72;;;;;;;;;;4951041;29;20039;-59
2024/02/01 02:47:38;;;;;;;8.90;4.13;;;;;;;;;;4951545;28;20035;-60
2024/02/01 02:50:06;;;;;;;5.78;3.60;;;;;;;;;;4952433;29;20039;-59
2024/02/01 02:52:32;;;;;;;5.40;3.60;;;;;;;;;;4953088;28;20043;-61
2024/02/01 02:54:59;;;;;;;8.07;3.60;;;;;;;;;;4948623;29;20058;-59
2024/02/01 02:57:25;;;;;;;9.85;3.55;;;;;;;;;;4951314;28;20031;-59
2024/02/01 02:59:51;;;;;;;7.55;4.00;;;;;;;;;;4948954;29;20035;-59
2024/02/01 03:02:18;;;;;;;7.15;4.28;;;;;;;;;;4952259;28;20055;-60
2024/02/01 03:04:44;;;;;;;8.20;4.18;;;;;;;;;;4951148;28;20048;-59
2024/02/01 03:07:10;;;;;;;9.82;3.80;;;;;;;;;;4951459;28;20043;-60
2024/02/01 03:09:37;;;;;;;10.75;4.03;;;;;;;;;;4952784;29;20042;-59
2024/02/01 03:12:09;;;;;;;8.88;3.85;;;;;;;;;;4952671;29;20042;-59
2024/02/01 03:14:42;;;;;;;7.00;3.65;;;;;;;;;;4950738;28;20046;-60
2024/02/01 03:17:09;;;;;;;7.40;3.90;;;;;;;;;;4952505;29;20043;-59
2024/02/01 03:19:35;;;;;;;9.55;3.72;;;;;;;;;;4952804;29;20035;-62
2024/02/01 03:22:02;;;;;;;6.00;3.95;;;;;;;;;;4949457;29;20810;-60
2024/02/01 03:24:30;;;;;;;10.15;3.95;;;;;;;;;;4952081;28;20051;-59
2024/02/01 03:26:58;;;;;;;7.22;4.30;;;;;;;;;;4950688;28;20043;-60
2024/02/01 03:29:26;;;;;;;10.00;5.00;;;;;;;;;;4945517;29;20426;-60
2024/02/01 03:31:52;;;;;;;9.50;4.13;;;;;;;;;;4943617;29;20051;-60
2024/02/01 03:34:21;;;;;;;10.52;4.75;;;;;;;;;;4948185;29;20054;-59
2024/02/01 03:36:52;;;;;;;9.65;4.20;;;;;;;;;;4952074;28;20054;-60
2024/02/01 03:39:22;;;;;;;8.80;4.10;;;;;;;;;;4947939;29;20051;-60
2024/02/01 03:41:49;;;;;;;8.90;3.88;;;;;;;;;;4950156;28;20051;-60
2024/02/01 03:44:16;;;;;;;8.55;4.50;;;;;;;;;;4946309;29;20407;-60
2024/02/01 03:46:42;;;;;;;6.57;4.10;;;;;;;;;;4952068;29;20031;-60
2024/02/01 03:49:09;;;;;;;9.48;4.43;;;;;;;;;;4952092;28;20055;-59
2024/02/01 03:51:36;;;;;;;6.97;4.30;;;;;;;;;;4949937;28;20047;-60
2024/02/01 03:54:05;;;;;;;8.77;4.20;;;;;;;;;;4949509;29;20047;-59
2024/02/01 03:56:32;;;;;;;;;;;;;;;;;;4948680;29;20050;-59
2024/02/01 03:59:01;;;;;;;7.90;4.40;;;;;;;;;;4952220;29;19915;-59
2024/02/01 04:01:27;;;;;;;9.53;4.00;;;;;;;;;;4951091;28;20046;-59
2024/02/01 04:03:55;;;;;;;8.35;4.30;;;;;;;;;;4952033;29;20629;-60
2024/02/01 04:06:24;;;;;;;8.93;4.82;;;;;;;;;;4950452;29;20046;-62
2024/02/01 04:08:56;;;;;;;;;;;;;;;;;;4950888;28;20047;-68
2024/02/01 04:11:24;;;;;;;6.13;4.03;;;;;;;;;;4948654;28;19919;-60
2024/02/01 04:13:50;;;;;;;6.53;4.00;;;;;;;;;;4948921;28;20031;-60
2024/02/01 04:16:17;;;;;;;6.90;4.10;;;;;;;;;;4952009;28;20031;-59
2024/02/01 04:18:43;;;;;;;8.23;4.00;;;;;;;;;;4952577;29;20031;-59
2024/02/01 04:21:12;;;;;;;6.75;4.32;;;;;;;;;;4954235;29;20288;-59
2024/02/01 04:23:38;;;;;;;13.90;5.25;;;;;;;;;;4951808;28;20043;-59
2024/02/01 04:26:05;;;;;;;9.73;4.82;;;;;;;;;;4953552;29;20035;-60
2024/02/01 04:28:33;;;;;;;8.63;4.50;;;;;;;;;;4956027;29;20043;-60
2024/02/01 04:31:01;;;;;;;10.27;5.22;;;;;;;;;;4950998;28;20052;-59
2024/02/01 04:33:28;;;;;;;7.43;4.32;;;;;;;;;;4952839;29;20052;-59
2024/02/01 04:35:54;;;;;;;7.25;4.15;;;;;;;;;;4954843;28;20507;-59
2024/02/01 04:38:20;;;;;;;8.43;4.88;;;;;;;;;;4955923;29;20065;-59
2024/02/01 04:40:46;;;;;;;10.88;4.95;;;;;;;;;;4954627;29;20031;-60
2024/02/01 04:43:13;;;;;;;8.43;4.28;;;;;;;;;;4955323;28;20047;-59
2024/02/01 04:45:40;;;;;;;8.45;4.10;;;;;;;;;;4953410;29;20027;-60
2024/02/01 04:48:10;;;;;;;6.60;3.83;;;;;;;;;;4953510;29;20050;-60
2024/02/01 04:50:37;;;;;;;6.28;4.28;;;;;;;;;;4955371;29;20032;-60
2024/02/01 04:53:05;;;;;;;7.20;3.90;;;;;;;;;;4954374;28;20055;-59
2024/02/01 04:55:31;;;;;;;9.27;4.63;;;;;;;;;;4953140;29;20027;-59
2024/02/01 04:57:58;;;;;;;9.45;4.13;;;;;;;;;;4953888;29;20039;-60
2024/02/01 05:00:24;;;;;;;5.15;3.65;;;;;;;;;;4954719;28;20047;-60
2024/02/01 05:02:50;;;;;;;7.97;3.80;;;;;;;;;;4954330;28;20047;-59
2024/02/01 05:05:17;;;;;;;10.85;4.07;;;;;;;;;;4953903;29;20035;-60
2024/02/01 05:07:43;;;;;;;6.00;3.50;;;;;;;;;;4954837;28;20047;-60
2024/02/01 05:10:12;;;;;;;6.63;3.58;;;;;;;;;;4951561;29;20050;-59
2024/02/01 05:12:42;;;;;;;7.82;3.28;;;;;;;;;;4954752;28;20047;-60
2024/02/01 05:15:09;;;;;;;5.07;3.40;;;;;;;;;;4954849;28;20058;-59
2024/02/01 05:17:36;;;;;;;6.78;3.45;;;;;;;;;;4953023;28;20035;-61
2024/02/01 05:20:08;;;;;;;4.75;3.60;;;;;;;;;;4951709;28;20404;-60
2024/02/01 05:22:36;;;;;;;5.80;3.22;;;;;;;;;;4951575;29;20054;-60
2024/02/01 05:25:23;;;;;;;6.95;3.15;;;;;;;;;;4952645;29;20046;-60
2024/02/01 05:27:52;;;;;;;5.72;3.25;;;;;;;;;;4952926;28;20047;-60
2024/02/01 05:30:20;;;;;;;6.03;3.38;;;;;;;;;;4942640;29;20051;-60
2024/02/01 05:32:53;;;;;;;4.63;3.08;;;;;;;;;;4954227;29;20035;-60
2024/02/01 05:35:27;;;;;;;6.57;3.30;;;;;;;;;;4949946;29;20034;-60
2024/02/01 05:37:55;;;;;;;4.72;2.85;;;;;;;;;;4950212;28;20046;-60
2024/02/01 05:40:22;;;;;;;5.68;3.38;;;;;;;;;;4953775;28;20039;-60
2024/02/01 05:42:48;;;;;;;5.88;3.30;;;;;;;;;;4953044;29;20510;-60
2024/02/01 05:45:16;;;;;;;6.40;2.80;;;;;;;;;;4952273;28;20039;-60
2024/02/01 05:47:42;;;;;;;4.35;2.92;;;;;;;;;;4952601;28;20050;-60
2024/02/01 05:50:11;;;;;;;6.47;2.83;;;;;;;;;;4951286;28;20078;-60
2024/02/01 05:52:38;;;;;;;6.82;3.45;;;;;;;;;;4947787;28;20039;-61
2024/02/01 05:55:06;;;;;;;8.02;2.97;;;;;;;;;;4951732;28;20069;-60
2024/02/01 05:57:33;;;;;;;4.35;2.75;;;;;;;;;;4953937;29;20050;-60
2024/02/01 06:00:00;;;;;;;8.35;3.25;;;;;;;;;;4952003;29;20530;-61
2024/02/01 06:02:27;;;;;;;5.95;3.22;;;;;;;;;;4952976;28;20411;-61
2024/02/01 06:04:53;;;;;;;6.45;2.95;;;;;;;;;;4952527;29;20039;-61
2024/02/01 06:07:19;;;;;;;5.32;3.50;;;;;;;;;;4949666;29;20054;-61
2024/02/01 06:09:45;;;;;;;5.80;3.65;;;;;;;;;;4952404;29;20059;-61
2024/02/01 06:12:11;;;;;;;8.20;3.45;;;;;;;;;;4951780;29;20518;-61
2024/02/01 06:14:37;;;;;;;7.57;3.75;;;;;;;;;;4952160;28;20062;-60
2024/02/01 06:17:04;;;;;;;8.88;3.63;;;;;;;;;;4953303;28;20422;-61
2024/02/01 06:19:30;;;;;;;9.93;4.38;;;;;;;;;;4952452;29;20050;-61
2024/02/01 06:21:56;;;;;;;9.95;4.25;;;;;;;;;;4953304;29;20046;-61
2024/02/01 06:24:22;;;;;;;9.70;4.07;;;;;;;;;;4951994;29;20070;-61
2024/02/01 06:26:48;;;;;;;7.43;4.45;;;;;;;;;;4947531;28;20047;-60
2024/02/01 06:29:15;;;;;;;9.02;4.82;;;;;;;;;;4947516;28;20044;-61
2024/02/01 06:31:41;;;;;;;8.77;4.85;;;;;;;;;;4953176;28;20046;-60
2024/02/01 06:34:09;;;;;;;9.15;4.32;;;;;;;;;;4953368;28;20055;-61
2024/02/01 06:36:37;;;;;;;9.15;4.57;;;;;;;;;;4949831;28;20697;-61
2024/02/01 06:39:16;;;;;;;;;;;;;;;;;;;;;
2024/02/01 06:44:09;;;;;;;;;;;;;;;;;;;;;
2024/02/01 06:49:39;;;;;;;9.77;5.03;;;;;;;;;;4948697;29;20058;-62
2024/02/01 06:54:50;;;;;;;8.93;5.20;;;;;;;;;;4949921;29;20039;-61
2024/02/01 06:57:22;;;;;;;8.55;5.47;;;;;;;;;;4949648;29;20108;-60
2024/02/01 07:02:51;;;;;;;9.98;5.50;;;;;;;;;;4941002;28;20046;-62
2024/02/01 07:05:57;;;;;;;8.77;5.40;;;;;;;;;;4946161;28;20070;-63
2024/02/01 07:08:13;;;;;;;11.95;5.60;;;;;;;;;;4945054;28;20047;-63
2024/02/01 07:10:43;;;;;;;8.80;5.80;;;;;;;;;;4949434;28;20063;-62
2024/02/01 07:13:21;;;;;;;9.20;5.03;;;;;;;;;;4952656;28;20043;-62
2024/02/01 07:15:48;;;;;;;12.50;5.50;;;;;;;;;;4950014;29;20039;-62
2024/02/01 07:18:14;;;;;;;9.65;5.38;;;;;;;;;;4948418;28;20059;-63
2024/02/01 07:23:33;;;;;;;11.35;6.15;;;;;;;;;;4952626;28;20047;-62
2024/02/01 07:26:06;;;;;;;10.20;5.20;;;;;;;;;;4945557;28;20530;-61
2024/02/01 07:58:43;;;;;;;11.20;6.15;;;;;;;;;;4951921;28;20031;-61
2024/02/01 08:01:17;;;;;;;9.88;6.03;;;;;;;;;;4951683;28;20435;-62
2024/02/01 08:04:12;;;;;;;12.20;6.53;;;;;;;;;;4954849;28;20039;-62
2024/02/01 08:09:24;;;;;;;12.45;6.22;;;;;;;;;;4952434;28;20495;-60
2024/02/01 08:11:50;;;;;;;12.93;6.32;;;;;;;;;;4950082;28;20031;-62
2024/02/01 08:14:16;;;;;;;12.82;6.25;;;;;;;;;;4950281;28;20039;-63
2024/02/01 08:16:43;;;;;;;10.40;5.88;;;;;;;;;;4952003;28;20027;-63
2024/02/01 08:19:10;;;;;;;10.23;5.55;;;;;;;;;;4950789;28;20055;-64
2024/02/01 08:21:39;;;;;;;9.35;5.93;;;;;;;;;;4953802;28;20047;-61
2024/02/01 08:24:06;;;;;;;9.88;5.47;;;;;;;;;;4948644;28;20392;-63
2024/02/01 08:26:41;;;;;;;11.48;6.22;;;;;;;;;;4954040;28;20737;-62
2024/02/01 08:29:07;;;;;;;12.27;6.07;;;;;;;;;;4951904;29;20043;-62
2024/02/01 08:31:37;;;;;;;14.70;7.10;;;;;;;;;;4954627;28;20047;-61
2024/02/01 08:34:07;;;;;;;12.38;6.72;;;;;;;;;;4953641;28;20047;-61
2024/02/01 08:36:34;;;;;;;11.05;6.35;;;;;;;;;;4951597;28;20058;-62
2024/02/01 08:39:00;;;;;;;10.48;6.22;;;;;;;;;;4951794;28;20054;-61
2024/02/01 08:41:27;;;;;;;13.73;6.30;;;;;;;;;;4953957;28;20035;-62
2024/02/01 08:43:54;;;;;;;15.48;7.25;;;;;;;;;;4950895;28;20059;-63
2024/02/01 08:46:22;;;;;;;11.95;6.85;;;;;;;;;;4948736;28;20046;-63
2024/02/01 08:48:49;;;;;;;12.55;6.57;;;;;;;;;;4948623;28;20047;-62
2024/02/01 08:51:17;;;;;;;15.52;7.07;;;;;;;;;;4952950;28;20036;-62
2024/02/01 08:53:45;;;;;;;14.15;7.30;;;;;;;;;;4952448;28;20097;-62
2024/02/01 08:56:12;;;;;;;15.75;6.93;;;;;;;;;;4951096;28;20578;-62
2024/02/01 08:58:38;;;;;;;16.55;6.78;;;;;;;;;;4951897;28;20051;-61
2024/02/01 09:01:05;;;;;;;13.85;7.82;;;;;;;;;;4948987;28;20051;-61
2024/02/01 09:03:32;;;;;;;13.75;7.63;;;;;;;;;;4957144;28;20041;-61
2024/02/01 09:06:08;;;;;;;15.45;7.10;;;;;;;;;;4956147;28;20039;-62
2024/02/01 09:08:39;;;;;;;15.32;7.35;;;;;;;;;;4952610;28;20051;-61
2024/02/01 09:11:11;;;;;;;16.90;8.43;;;;;;;;;;4955147;28;21008;-62
2024/02/01 09:13:43;;;;;;;12.00;7.50;;;;;;;;;;4952991;28;20514;-62
2024/02/01 09:16:19;;;;;;;13.50;7.75;;;;;;;;;;4950102;28;20058;-62
2024/02/01 09:18:45;;;;;;;16.35;7.78;;;;;;;;;;4946849;28;20047;-62
2024/02/01 09:21:12;;;;;;;15.68;7.53;;;;;;;;;;4955441;28;20427;-62
2024/02/01 09:23:39;;;;;;;16.48;8.52;;;;;;;;;;4957185;28;20047;-62
2024/02/01 09:26:08;;;;;;;14.20;7.68;;;;;;;;;;4954694;28;20047;-62
2024/02/01 09:28:35;;;;;;;13.07;6.60;;;;;;;;;;4954648;28;20054;-62
2024/02/01 09:31:18;;;;;;;22.85;9.05;;;;;;;;;;4953590;28;20039;-61
2024/02/01 09:33:51;;;;;;;16.83;8.60;;;;;;;;;;4955071;28;20054;-61
2024/02/01 09:36:18;;;;;;;17.25;7.65;;;;;;;;;;4954552;28;20047;-61
2024/02/01 09:38:44;;;;;;;14.02;7.65;;;;;;;;;;4955548;28;20050;-61
2024/02/01 09:41:18;;;;;;;17.52;8.40;;;;;;;;;;4954242;28;20048;-61
2024/02/01 09:43:48;;;;;;;17.80;8.00;;;;;;;;;;4954752;28;20039;-61
2024/02/01 09:46:16;;;;;;;14.02;6.72;;;;;;;;;;4956895;28;20039;-61
2024/02/01 09:48:44;;;;;;;13.15;6.70;;;;;;;;;;4954458;28;20423;-61
2024/02/01 09:51:17;;;;;;;16.63;6.97;;;;;;;;;;4954302;29;20512;-60
2024/02/01 09:53:47;;;;;;;18.42;6.75;;;;;;;;;;4954408;28;20055;-61
2024/02/01 09:56:13;;;;;;;13.95;6.25;;;;;;;;;;4955597;28;20055;-61
2024/02/01 09:58:41;;;;;;;14.23;7.50;;;;;;;;;;4957759;28;20062;-61
2024/02/01 10:01:11;;;;;;;14.85;7.70;;;;;;;;;;4956518;28;20036;-61
2024/02/01 10:03:44;;;;;;;15.25;7.30;;;;;;;;;;4956632;28;20053;-61
2024/02/01 10:06:11;;;;;;;11.18;5.93;;;;;;;;;;4955448;28;20055;-61
2024/02/01 10:08:38;;;;;;;11.80;6.63;;;;;;;;;;4952169;29;20051;-61
2024/02/01 10:11:04;;;;;;;12.88;6.88;;;;;;;;;;4951451;28;20059;-61
2024/02/01 10:13:34;;;;;;;12.77;6.43;;;;;;;;;;4952672;28;20124;-61
2024/02/01 10:16:01;;;;;;;14.25;6.70;;;;;;;;;;4953985;28;20431;-62
2024/02/01 10:18:27;;;;;;;12.25;5.82;;;;;;;;;;4952680;29;20050;-60
2024/02/01 10:20:58;;;;;;;12.77;6.20;;;;;;;;;;4953892;29;20418;-61
2024/02/01 10:23:25;;;;;;;17.20;6.93;;;;;;;;;;4953802;28;20415;-60
2024/02/01 10:25:53;;;;;;;15.88;6.13;;;;;;;;;;4952602;28;20043;-61
2024/02/01 10:28:22;;;;;;;13.93;6.03;;;;;;;;;;4951696;28;20031;-61
2024/02/01 10:30:51;;;;;;;11.60;6.40;;;;;;;;;;4953257;28;20050;-60
2024/02/01 10:33:19;;;;;;;13.90;6.47;;;;;;;;;;4953485;28;20503;-61
2024/02/01 10:35:48;;;;;;;15.43;6.57;;;;;;;;;;4954068;28;20058;-62
2024/02/01 10:38:20;;;;;;;11.77;6.50;;;;;;;;;;4952302;28;20043;-62
2024/02/01 10:41:12;;;;;;;23.92;8.43;;;;;;;;;;4953759;28;20054;-60
2024/02/01 10:43:42;;;;;;;13.23;5.78;;;;;;;;;;4953104;28;20041;-61
2024/02/01 10:46:10;;;;;;;13.93;6.20;;;;;;;;;;4951743;28;20054;-61
2024/02/01 10:48:45;;;;;;;12.93;6.22;;;;;;;;;;4955660;28;20035;-61
2024/02/01 10:51:13;;;;;;;16.30;6.72;;;;;;;;;;4956105;28;20043;-62
2024/02/01 10:53:44;;;;;;;14.70;7.43;;;;;;;;;;4954358;28;20439;-61
2024/02/01 10:56:16;;;;;;;14.23;6.95;;;;;;;;;;4952349;28;20404;-61
2024/02/01 10:58:52;;;;;;;20.60;8.10;;;;;;;;;;4952983;28;20065;-61
2024/02/01 11:01:24;;;;;;;15.30;6.70;;;;;;;;;;4958800;28;20039;-61
2024/02/01 11:03:56;;;;;;;13.18;6.10;;;;;;;;;;4952072;28;20039;-61
2024/02/01 11:06:26;;;;;;;16.85;6.72;;;;;;;;;;4950655;28;20108;-60
2024/02/01 11:08:55;;;;;;;14.80;6.57;;;;;;;;;;4950764;28;20100;-60
2024/02/01 11:11:32;;;;;;;15.30;6.63;;;;;;;;;;4951522;28;20035;-62
2024/02/01 11:14:11;;;;;;;15.57;6.90;;;;;;;;;;4947100;28;20511;-61
2024/02/01 11:16:42;;;;;;;16.45;7.15;;;;;;;;;;4949056;28;20487;-61
2024/02/01 11:19:17;;;;;;;15.05;7.32;;;;;;;;;;4943964;28;20625;-61
2024/02/01 11:21:47;;;;;;;15.40;7.07;;;;;;;;;;4949618;28;20529;-61
2024/02/01 11:24:24;;;;;;;18.15;8.07;;;;;;;;;;4949356;28;20047;-61
2024/02/01 11:27:09;;;;;;;16.90;7.28;;;;;;;;;;4957063;28;20046;-61
2024/02/01 11:29:38;;;;;;;16.30;6.68;;;;;;;;;;4950711;29;20046;-61
2024/02/01 11:32:05;;;;;;;13.93;6.63;;;;;;;;;;4952025;28;20039;-60
2024/02/01 11:34:33;;;;;;;19.65;6.35;;;;;;;;;;4951584;28;20518;-61
2024/02/01 11:37:05;;;;;;;16.75;7.10;;;;;;;;;;4948939;28;20047;-61
2024/02/01 11:39:32;;;;;;;15.43;6.25;;;;;;;;;;4951433;28;20428;-61
2024/02/01 11:41:58;;;;;;;14.70;6.53;;;;;;;;;;4953816;28;20038;-61
2024/02/01 11:44:27;;;;;;;14.05;6.72;;;;;;;;;;4956116;28;20054;-60
2024/02/01 11:46:54;;;;;;;17.52;7.78;;;;;;;;;;4949257;28;20047;-61
2024/02/01 11:49:23;;;;;;;12.68;5.80;;;;;;;;;;4954774;28;20120;-61
2024/02/01 11:51:55;;;;;;;12.13;5.40;;;;;;;;;;4954892;28;20411;-60
2024/02/01 11:54:21;;;;;;;19.70;6.00;;;;;;;;;;4954830;28;20051;-60
2024/02/01 11:56:47;;;;;;;10.68;5.53;;;;;;;;;;4951801;28;20498;-60
2024/02/01 11:59:13;;;;;;;19.15;7.10;;;;;;;;;;4954215;28;20503;-60
2024/02/01 12:01:39;;;;;;;15.82;7.18;;;;;;;;;;4947714;28;20062;-60
2024/02/01 12:04:07;;;;;;;13.88;5.28;;;;;;;;;;4951928;28;20051;-60
2024/02/01 12:06:34;;;;;;;11.57;5.30;;;;;;;;;;4951592;28;20043;-60
2024/02/01 12:09:00;;;;;;;10.95;5.43;;;;;;;;;;4948347;28;20062;-60
2024/02/01 12:11:33;;;;;;;11.88;5.32;;;;;;;;;;4949574;28;20055;-59
2024/02/01 12:14:11;;;;;;;13.52;6.72;;;;;;;;;;4949887;28;20051;-60
2024/02/01 12:16:39;;;;;;;10.40;5.72;;;;;;;;;;4951907;28;20039;-60
2024/02/01 12:19:12;;;;;;;11.63;5.15;;;;;;;;;;4950643;29;20050;-61
2024/02/01 12:21:41;;;;;;;15.73;5.85;;;;;;;;;;4951340;28;20051;-60
2024/02/01 12:24:08;;;;;;;13.32;5.70;;;;;;;;;;4948238;28;20074;-60
2024/02/01 12:26:34;;;;;;;9.02;5.60;;;;;;;;;;4951498;28;20054;-60
2024/02/01 12:29:01;;;;;;;10.32;5.70;;;;;;;;;;4954363;28;20050;-60
2024/02/01 12:31:27;;;;;;;13.90;6.85;;;;;;;;;;4948163;28;20031;-60
2024/02/01 12:33:54;;;;;;;11.82;5.13;;;;;;;;;;4951862;28;20035;-60
2024/02/01 12:36:20;;;;;;;14.10;5.70;;;;;;;;;;4951570;28;20035;-60
2024/02/01 12:38:49;;;;;;;11.43;5.35;;;;;;;;;;4951362;28;20534;-60
2024/02/01 12:41:16;;;;;;;14.07;5.57;;;;;;;;;;4953051;28;20039;-60
2024/02/01 12:43:42;;;;;;;13.02;5.95;;;;;;;;;;4953601;28;20039;-60
2024/02/01 12:46:12;;;;;;;12.43;6.22;;;;;;;;;;4957426;28;20082;-61
2024/02/01 12:48:39;;;;;;;11.45;5.35;;;;;;;;;;4955459;28;20498;-60
2024/02/01 12:51:06;;;;;;;13.40;5.95;;;;;;;;;;4958071;28;20043;-60
2024/02/01 12:53:33;;;;;;;11.90;5.35;;;;;;;;;;4953892;28;20403;-60
2024/02/01 12:55:59;;;;;;;10.10;5.50;;;;;;;;;;4957352;28;20385;-60
2024/02/01 12:58:25;;;;;;;11.07;5.70;;;;;;;;;;4959488;28;20058;-60
2024/02/01 13:00:52;;;;;;;11.07;5.57;;;;;;;;;;4951907;29;20042;-60
2024/02/01 13:03:18;;;;;;;11.98;5.00;;;;;;;;;;4951920;28;20065;-60
2024/02/01 13:05:44;;;;;;;9.82;5.15;;;;;;;;;;4951586;28;20047;-61
2024/02/01 13:08:14;;;;;;;11.93;5.07;;;;;;;;;;4954549;28;20059;-61
2024/02/01 13:10:44;;;;;;;11.80;5.50;;;;;;;;;;4952667;28;20051;-60
2024/02/01 13:13:11;;;;;;;8.50;4.63;;;;;;;;;;4952231;28;20058;-60
2024/02/01 13:15:38;;;;;;;12.13;5.22;;;;;;;;;;4947246;28;20039;-60
2024/02/01 13:18:11;;;;;;;13.10;6.13;;;;;;;;;;4952545;28;20047;-60
2024/02/01 13:20:38;;;;;;;12.98;6.03;;;;;;;;;;4955361;28;20051;-60
2024/02/01 13:23:14;;;;;;;14.00;6.55;;;;;;;;;;4955275;28;20049;-60
2024/02/01 13:25:41;;;;;;;16.33;7.25;;;;;;;;;;4956343;28;20043;-60
2024/02/01 13:28:10;;;;;;;15.45;7.65;;;;;;;;;;4954702;28;20519;-61
2024/02/01 13:30:43;;;;;;;16.02;6.80;;;;;;;;;;4954760;28;20430;-60
2024/02/01 13:33:09;;;;;;;17.45;7.35;;;;;;;;;;4955401;28;20051;-60
2024/02/01 13:35:36;;;;;;;13.00;6.20;;;;;;;;;;4950379;28;20070;-61
2024/02/01 13:38:05;;;;;;;12.75;6.22;;;;;;;;;;4953238;28;20399;-60
2024/02/01 13:40:33;;;;;;;13.60;6.47;;;;;;;;;;4954052;28;20039;-61
2024/02/01 13:43:00;;;;;;;16.40;6.68;;;;;;;;;;4946962;28;20039;-61
2024/02/01 13:45:27;;;;;;;16.90;7.82;;;;;;;;;;4950304;28;20047;-61
2024/02/01 13:47:56;;;;;;;14.88;6.90;;;;;;;;;;4951129;28;20050;-60
2024/02/01 13:50:23;;;;;;;13.93;7.47;;;;;;;;;;4950192;28;20047;-61
2024/02/01 13:52:51;;;;;;;17.02;7.05;;;;;;;;;;4953393;28;20035;-61
2024/02/01 13:55:17;;;;;;;19.13;6.80;;;;;;;;;;4948849;28;20054;-62
2024/02/01 13:57:43;;;;;;;13.52;5.85;;;;;;;;;;4952506;28;20050;-62
2024/02/01 14:00:16;;;;;;;64.90;22.48;;;;;;;;;;4953255;28;20442;-61
2024/02/01 14:02:44;;;;;;;218.20;63.17;;;;;;;;;;4953991;28;20411;-61
2024/02/01 14:05:11;;;;;;;78.30;24.27;;;;;;;;;;4953018;28;20055;-61
2024/02/01 14:07:38;;;;;;;41.20;16.10;;;;;;;;;;4953373;28;20051;-62
2024/02/01 14:10:08;;;;;;;51.65;17.70;;;;;;;;;;4955010;28;20049;-61
2024/02/01 14:12:39;;;;;;;72.47;24.52;;;;;;;;;;4951650;28;20042;-61
2024/02/01 14:15:06;;;;;;;54.17;15.85;;;;;;;;;;4947043;28;20043;-61
2024/02/01 14:17:33;;;;;;;42.75;12.68;;;;;;;;;;4950353;28;20046;-61
2024/02/01 14:20:00;;;;;;;47.75;14.85;;;;;;;;;;4956676;28;20043;-60
2024/02/01 14:22:26;;;;;;;44.83;13.00;;;;;;;;;;4954866;28;20038;-62
2024/02/01 14:24:53;;;;;;;34.40;9.88;;;;;;;;;;4955771;28;20031;-60
2024/02/01 14:27:24;;;;;;;22.08;6.90;;;;;;;;;;4950371;28;20039;-60
2024/02/01 14:29:51;;;;;;;11.98;6.10;;;;;;;;;;4949667;28;20058;-60
2024/02/01 14:32:17;;;;;;;15.93;7.00;;;;;;;;;;4952202;28;20046;-61
2024/02/01 14:34:44;;;;;;;18.10;7.78;;;;;;;;;;4950334;28;20040;-60
2024/02/01 14:37:11;;;;;;;21.98;7.75;;;;;;;;;;4951521;28;20051;-60
2024/02/01 14:39:38;;;;;;;24.95;9.02;;;;;;;;;;4950749;28;20043;-61
2024/02/01 14:42:04;;;;;;;15.75;8.00;;;;;;;;;;4950308;28;20035;-60
2024/02/01 14:44:31;;;;;;;15.13;7.32;;;;;;;;;;4950896;28;20028;-61
2024/02/01 14:46:57;;;;;;;24.15;8.77;;;;;;;;;;4947665;28;20501;-60
2024/02/01 14:49:23;;;;;;;70.72;18.25;;;;;;;;;;4943034;28;20108;-60
2024/02/01 14:51:50;;;;;;;75.32;20.50;;;;;;;;;;4952023;28;20042;-60
2024/02/01 14:54:16;;;;;;;45.25;14.30;;;;;;;;;;4941771;28;20066;-60
2024/02/01 14:56:42;;;;;;;26.80;11.85;;;;;;;;;;4940697;28;20032;-61
2024/02/01 14:59:10;;;;;;;24.15;10.20;;;;;;;;;;4948334;28;20050;-60
2024/02/01 15:01:36;;;;;;;17.10;9.30;;;;;;;;;;4947264;28;20051;-61
2024/02/01 15:04:02;;;;;;;20.77;9.07;;;;;;;;;;4947055;28;20035;-62
2024/02/01 15:06:29;;;;;;;17.85;8.25;;;;;;;;;;4947458;28;20051;-61
2024/02/01 15:08:58;;;;;;;19.13;8.02;;;;;;;;;;4945806;28;20527;-61
2024/02/01 15:11:25;;;;;;;19.30;9.57;;;;;;;;;;4944537;28;20388;-60
2024/02/01 15:13:54;;;;;;;19.80;8.27;;;;;;;;;;4949784;28;20035;-61
2024/02/01 15:16:20;;;;;;;21.42;8.80;;;;;;;;;;4948193;28;20165;-60
2024/02/01 15:18:47;;;;;;;19.73;9.23;;;;;;;;;;4946578;28;20042;-61
2024/02/01 15:21:14;;;;;;;45.10;13.68;;;;;;;;;;4932919;29;20046;-62
2024/02/01 15:23:41;;;;;;;54.25;16.35;;;;;;;;;;4944345;28;20035;-61
2024/02/01 15:26:16;;;;;;;50.08;16.75;;;;;;;;;;4947411;28;20058;-61
2024/02/01 15:28:46;;;;;;;85.07;23.88;;;;;;;;;;4952744;28;20507;-62
2024/02/01 15:31:15;;;;;;;;;;;;;;;;;;4931511;28;20043;-61